createdAt,value
2022-08-04T00:01:08.574Z,58.6
2022-08-04T00:04:08.519Z,58.6
2022-08-04T00:07:08.727Z,58.6
2022-08-04T00:10:08.991Z,58.6
2022-08-04T00:13:09.236Z,58.6
2022-08-04T00:16:09.447Z,58.6
2022-08-04T00:19:09.700Z,58.6
2022-08-04T00:22:09.867Z,58.6
2022-08-04T00:25:10.122Z,58.3
2022-08-04T00:28:10.344Z,58.3
2022-08-04T00:31:11.910Z,58.3
2022-08-04T00:34:10.829Z,58.3
2022-08-04T00:37:11.053Z,58.3
2022-08-04T00:40:06.292Z,58.3
2022-08-04T00:43:06.549Z,58.3
2022-08-04T00:46:18.482Z,58.3
2022-08-04T00:49:07.024Z,58.3
2022-08-04T00:52:34.464Z,58.3
2022-08-04T00:55:09.742Z,58.3
2022-08-04T00:58:07.717Z,58.3
2022-08-04T01:01:08.306Z,58.3
2022-08-04T01:04:08.220Z,58.3
2022-08-04T01:07:08.466Z,59.1
2022-08-04T01:10:08.720Z,59.1
2022-08-04T01:13:16.002Z,59.1
2022-08-04T01:16:09.182Z,59.1
2022-08-04T01:19:09.438Z,59.1
2022-08-04T01:22:09.687Z,59.1
2022-08-04T01:25:11.208Z,59.1
2022-08-04T01:28:10.541Z,59.1
2022-08-04T01:31:13.429Z,59.1
2022-08-04T01:34:10.651Z,59.1
2022-08-04T01:37:10.853Z,59.1
2022-08-04T01:40:11.144Z,59.1
2022-08-04T01:43:06.309Z,59.1
2022-08-04T01:46:07.465Z,59.1
2022-08-04T01:49:06.793Z,59.1
2022-08-04T01:52:07.038Z,60.1
2022-08-04T01:55:07.280Z,60.1
2022-08-04T01:58:07.594Z,60.1
2022-08-04T02:01:09.805Z,60.1
2022-08-04T02:04:24.171Z,60.1
2022-08-04T02:07:08.218Z,60.1
2022-08-04T02:10:08.502Z,60.1
2022-08-04T02:13:08.735Z,60.1
2022-08-04T02:16:08.952Z,60.1
2022-08-04T02:19:15.224Z,60.1
2022-08-04T02:22:09.455Z,60.1
2022-08-04T02:25:09.709Z,60.1
2022-08-04T02:28:09.906Z,60.1
2022-08-04T02:31:10.146Z,60.1
2022-08-04T02:34:10.424Z,61.5
2022-08-04T02:37:12.373Z,61.5
2022-08-04T02:40:10.839Z,61.5
2022-08-04T02:43:11.091Z,61.5
2022-08-04T02:46:18.676Z,61.5
2022-08-04T02:49:06.541Z,61.5
2022-08-04T02:52:06.795Z,61.5
2022-08-04T02:55:07.038Z,61.5
2022-08-04T02:58:07.263Z,61.5
2022-08-04T03:01:07.990Z,61.5
2022-08-04T03:04:07.797Z,61.5
2022-08-04T03:07:16.306Z,61.5
2022-08-04T03:10:08.224Z,61.5
2022-08-04T03:13:08.454Z,61.5
2022-08-04T03:16:08.685Z,61.5
2022-08-04T03:19:08.883Z,62.7
2022-08-04T03:22:09.165Z,62.7
2022-08-04T03:25:09.419Z,62.7
2022-08-04T03:28:11.282Z,62.7
2022-08-04T03:31:09.881Z,62.7
2022-08-04T03:34:10.117Z,62.7
2022-08-04T03:37:10.383Z,62.7
2022-08-04T03:40:11.480Z,62.7
2022-08-04T03:44:00.425Z,62.7
2022-08-04T03:46:11.035Z,62.7
2022-08-04T03:49:11.284Z,62.7
2022-08-04T03:52:06.412Z,62.7
2022-08-04T03:55:06.650Z,62.7
2022-08-04T03:58:06.887Z,62.7
2022-08-04T04:01:13.901Z,63.6
2022-08-04T04:04:07.369Z,63.6
2022-08-04T04:07:08.299Z,63.6
2022-08-04T04:10:08.069Z,63.6
2022-08-04T04:13:13.107Z,63.6
2022-08-04T04:16:08.335Z,63.6
2022-08-04T04:19:08.573Z,63.6
2022-08-04T04:22:11.661Z,63.6
2022-08-04T04:25:09.056Z,63.6
2022-08-04T04:28:47.509Z,63.6
2022-08-04T04:31:14.531Z,63.6
2022-08-04T04:34:09.778Z,63.6
2022-08-04T04:37:10.000Z,63.6
2022-08-04T04:40:10.320Z,63.6
2022-08-04T04:43:10.460Z,63.6
2022-08-04T04:46:15.747Z,64.5
2022-08-04T04:49:10.947Z,64.5
2022-08-04T04:52:11.178Z,64.5
2022-08-04T04:55:06.392Z,64.5
2022-08-04T04:58:06.648Z,64.5
2022-08-04T05:01:07.096Z,64.5
2022-08-04T05:04:07.160Z,64.5
2022-08-04T05:07:07.388Z,64.5
2022-08-04T05:10:07.768Z,64.5
2022-08-04T05:14:42.280Z,64.5
2022-08-04T05:16:08.101Z,64.5
2022-08-04T05:19:08.333Z,64.5
2022-08-04T05:22:15.254Z,64.5
2022-08-04T05:25:08.796Z,64.5
2022-08-04T05:28:09.064Z,64.5
2022-08-04T05:31:09.286Z,65.5
2022-08-04T05:34:09.541Z,65.5
2022-08-04T05:37:09.718Z,65.5
2022-08-04T05:40:09.989Z,65.5
2022-08-04T05:43:10.217Z,65.5
2022-08-04T05:46:10.471Z,65.5
2022-08-04T05:49:22.544Z,65.5
2022-08-04T05:52:10.950Z,65.5
2022-08-04T05:55:11.150Z,65.5
2022-08-04T05:58:11.397Z,65.5
2022-08-04T06:01:06.653Z,65.5
2022-08-04T06:04:12.030Z,65.5
2022-08-04T06:07:07.119Z,65.5
2022-08-04T06:10:07.387Z,65.5
2022-08-04T06:13:07.644Z,66.4
2022-08-04T06:16:26.713Z,66.4
2022-08-04T06:20:24.981Z,66.4
2022-08-04T06:22:08.299Z,66.4
2022-08-04T06:25:08.530Z,66.4
2022-08-04T06:28:08.821Z,66.4
2022-08-04T06:32:42.273Z,66.4
2022-08-04T06:34:09.246Z,66.4
2022-08-04T06:37:09.508Z,66.4
2022-08-04T06:40:35.255Z,66.4
2022-08-04T06:43:09.962Z,66.4
2022-08-04T06:46:10.315Z,66.4
2022-08-04T06:49:10.460Z,66.4
2022-08-04T06:52:10.637Z,66.4
2022-08-04T06:55:10.892Z,66.4
2022-08-04T06:58:11.140Z,66.9
2022-08-04T07:01:06.449Z,66.9
2022-08-04T07:04:06.634Z,66.9
2022-08-04T07:07:06.818Z,66.9
2022-08-04T07:10:07.048Z,66.9
2022-08-04T07:13:07.355Z,66.9
2022-08-04T07:16:07.695Z,66.9
2022-08-04T07:19:19.344Z,66.9
2022-08-04T07:22:26.169Z,66.9
2022-08-04T07:25:14.973Z,66.9
2022-08-04T07:28:08.495Z,66.9
2022-08-04T07:31:08.715Z,66.9
2022-08-04T07:34:22.688Z,66.9
2022-08-04T07:37:09.791Z,66.9
2022-08-04T07:40:09.461Z,67.2
2022-08-04T07:43:09.679Z,67.2
2022-08-04T07:46:09.881Z,67.2
2022-08-04T07:49:10.262Z,67.2
2022-08-04T07:52:10.389Z,67.2
2022-08-04T07:55:10.611Z,67.2
2022-08-04T07:58:10.852Z,67.2
2022-08-04T08:01:11.111Z,67.2
2022-08-04T08:04:06.297Z,67.2
2022-08-04T08:07:06.538Z,67.2
2022-08-04T08:10:06.778Z,67.2
2022-08-04T08:13:08.238Z,67.2
2022-08-04T08:16:07.283Z,67.2
2022-08-04T08:19:07.485Z,67.2
2022-08-04T08:22:07.808Z,67.2
2022-08-04T08:25:07.991Z,66.7
2022-08-04T08:28:08.217Z,66.7
2022-08-04T08:31:08.449Z,66.7
2022-08-04T08:34:08.685Z,66.7
2022-08-04T08:37:08.979Z,66.7
2022-08-04T08:40:09.155Z,66.7
2022-08-04T08:44:36.459Z,66.7
2022-08-04T08:46:09.663Z,66.7
2022-08-04T08:49:09.941Z,66.7
2022-08-04T08:52:10.153Z,66.7
2022-08-04T08:55:10.341Z,66.7
2022-08-04T08:58:10.585Z,66.7
2022-08-04T09:01:11.373Z,66.7
2022-08-04T09:04:32.706Z,66.7
2022-08-04T09:07:11.322Z,65.6
2022-08-04T09:10:06.510Z,65.6
2022-08-04T09:13:06.784Z,65.6
2022-08-04T09:16:06.977Z,65.6
2022-08-04T09:19:07.242Z,65.6
2022-08-04T09:22:13.360Z,65.6
2022-08-04T09:25:07.753Z,65.6
2022-08-04T09:28:10.150Z,65.6
2022-08-04T09:31:08.327Z,65.6
2022-08-04T09:34:08.547Z,65.6
2022-08-04T09:37:08.666Z,65.6
2022-08-04T09:40:57.868Z,65.6
2022-08-04T09:43:09.158Z,65.6
2022-08-04T09:46:09.384Z,65.6
2022-08-04T09:49:09.620Z,65.6
2022-08-04T09:52:09.859Z,65.6
2022-08-04T09:55:10.097Z,65.6
2022-08-04T09:58:10.312Z,65.6
2022-08-04T10:01:10.691Z,65.6
2022-08-04T10:04:10.785Z,65.6
2022-08-04T17:07:09.024Z,64.6
2022-08-04T17:10:09.267Z,64.6
2022-08-04T17:14:07.255Z,64.6
2022-08-04T17:16:19.053Z,64.6
2022-08-04T17:19:27.444Z,64.6
2022-08-04T17:22:10.986Z,64.6
2022-08-04T17:25:10.550Z,64.6
2022-08-04T17:28:48.044Z,64.6
2022-08-04T17:31:11.159Z,64.6
2022-08-04T17:34:20.539Z,64.6
2022-08-04T17:37:54.012Z,64.6
2022-08-04T17:40:11.405Z,64.6
2022-08-04T17:44:07.758Z,64.6
2022-08-04T17:46:15.127Z,64.6
2022-08-04T17:49:07.281Z,64.6
2022-08-04T17:52:45.730Z,63.8
2022-08-04T17:55:21.063Z,63.8
2022-08-04T17:58:22.758Z,63.8
2022-08-04T18:01:25.774Z,63.8
2022-08-04T18:04:08.950Z,63.8
2022-08-04T18:08:50.597Z,63.8
2022-08-04T18:10:57.423Z,63.8
2022-08-04T18:13:17.067Z,63.8
2022-08-04T18:16:23.695Z,63.8
2022-08-04T18:19:09.581Z,63.8
2022-08-04T18:22:29.102Z,63.8
2022-08-04T18:25:09.966Z,63.8
2022-08-04T18:28:27.187Z,63.8
2022-08-04T18:31:10.382Z,63.8
2022-08-04T18:34:24.729Z,63.8
2022-08-04T18:40:55.866Z,63.8
2022-08-04T18:43:14.967Z,63.8
2022-08-04T18:46:16.745Z,63.8
2022-08-04T18:49:07.578Z,63.8
2022-08-04T19:58:09.489Z,62.8
2022-08-04T20:01:46.269Z,62.8
2022-08-04T20:04:12.990Z,62.8
2022-08-04T20:07:15.982Z,62.8
2022-08-04T20:10:13.538Z,62.8
2022-08-04T20:13:10.951Z,62.8
2022-08-04T20:16:31.268Z,62.8
2022-08-04T20:19:14.823Z,62.8
2022-08-04T20:25:44.073Z,62.8
2022-08-04T20:28:37.075Z,62.8
2022-08-04T20:31:09.297Z,62.8
2022-08-04T20:34:10.185Z,62.8
2022-08-04T20:37:15.673Z,62.8
2022-08-04T20:40:12.031Z,62.8
2022-08-04T20:43:10.243Z,62.2
2022-08-04T20:46:31.616Z,62.2
2022-08-04T20:49:12.067Z,62.2
2022-08-04T20:55:06.204Z,62.2
2022-08-04T20:58:11.342Z,62.2
2022-08-04T21:01:16.440Z,62.2
2022-08-04T21:04:06.785Z,62.2
2022-08-04T21:07:07.355Z,62.2
2022-08-04T21:10:07.305Z,62.2
2022-08-04T21:13:10.055Z,62.2
2022-08-04T21:16:07.719Z,62.2
2022-08-04T21:19:15.127Z,62.2
2022-08-04T21:22:11.033Z,62.2
2022-08-04T21:25:22.093Z,62
2022-08-04T21:28:09.196Z,62
2022-08-04T21:31:22.697Z,62
2022-08-04T21:34:09.151Z,62
2022-08-04T21:37:11.632Z,62
2022-08-04T21:40:39.000Z,62
2022-08-04T21:43:09.872Z,62
2022-08-04T21:46:12.092Z,62
2022-08-04T21:49:12.540Z,62
2022-08-04T21:52:10.964Z,62
2022-08-04T21:55:11.639Z,62
2022-08-04T21:58:13.751Z,62
2022-08-04T22:01:55.193Z,62
2022-08-04T22:04:09.065Z,62
2022-08-04T22:07:11.728Z,62
2022-08-04T22:10:06.929Z,62.2
2022-08-04T22:13:08.582Z,62.2
2022-08-04T22:16:07.565Z,62.2
2022-08-04T22:19:11.280Z,62.2
2022-08-04T22:28:08.435Z,62.2
2022-08-04T22:31:25.993Z,62.2
2022-08-04T22:34:09.491Z,62.2
2022-08-04T22:37:13.461Z,62.2
2022-08-04T22:40:13.387Z,62.2
2022-08-04T22:43:35.332Z,62.2
2022-08-04T22:46:18.649Z,62.2
2022-08-04T22:49:10.036Z,62.2
2022-08-04T22:52:32.500Z,63.4
2022-08-04T22:55:10.479Z,63.4
2022-08-04T22:58:14.691Z,63.4
2022-08-04T23:01:11.815Z,63.4
2022-08-04T23:04:08.657Z,63.4
2022-08-04T23:07:51.580Z,63.4
2022-08-04T23:10:06.638Z,63.4
2022-08-04T23:13:06.837Z,63.4
2022-08-04T23:16:11.909Z,63.4
2022-08-04T23:19:15.866Z,63.4
2022-08-04T23:22:07.627Z,63.4
2022-08-04T23:25:17.449Z,63.4
2022-08-04T23:28:09.008Z,63.4
2022-08-04T23:31:10.748Z,63.4
2022-08-04T23:34:08.932Z,63.4
2022-08-04T23:37:10.608Z,65.1
2022-08-04T23:40:52.995Z,65.1
2022-08-04T23:43:18.810Z,65.1
2022-08-04T23:46:09.445Z,65.1
2022-08-04T23:49:09.790Z,65.1
2022-08-04T23:52:31.214Z,65.1
2022-08-04T23:55:21.682Z,65.1
2022-08-04T23:58:29.704Z,65.1
